createdAt,value
2022-08-17T00:00:35.022Z,568.00
2022-08-17T00:00:43.835Z,569.00
2022-08-17T00:01:10.694Z,569.00
2022-08-17T00:01:52.622Z,570.00
2022-08-17T00:02:25.343Z,569.00
2022-08-17T00:02:42.782Z,569.00
2022-08-17T00:03:10.824Z,570.00
2022-08-17T00:03:40.917Z,570.00
2022-08-17T00:04:10.946Z,570.00
2022-08-17T00:04:41.052Z,570.00
2022-08-17T00:05:11.085Z,569.00
2022-08-17T00:05:41.142Z,569.00
2022-08-17T00:06:11.171Z,570.00
2022-08-17T00:06:41.208Z,569.00
2022-08-17T00:07:11.237Z,572.00
2022-08-17T00:07:41.269Z,572.00
2022-08-17T00:08:11.306Z,573.00
2022-08-17T00:08:41.335Z,573.00
2022-08-17T00:09:11.369Z,571.00
2022-08-17T00:09:41.421Z,569.00
2022-08-17T00:10:11.452Z,569.00
2022-08-17T00:10:41.658Z,566.00
2022-08-17T00:11:11.570Z,566.00
2022-08-17T00:11:41.608Z,568.00
2022-08-17T00:12:44.420Z,569.00
2022-08-17T00:12:44.634Z,569.00
2022-08-17T00:13:11.699Z,570.00
2022-08-17T00:13:41.725Z,570.00
2022-08-17T00:14:11.761Z,568.00
2022-08-17T00:14:41.795Z,568.00
2022-08-17T00:15:11.827Z,568.00
2022-08-17T00:15:41.881Z,569.00
2022-08-17T00:16:11.915Z,566.00
2022-08-17T00:16:56.677Z,566.00
2022-08-17T00:17:11.994Z,565.00
2022-08-17T00:17:42.026Z,564.00
2022-08-17T00:18:57.634Z,564.00
2022-08-17T00:19:06.395Z,565.00
2022-08-17T00:19:12.144Z,565.00
2022-08-17T00:19:42.178Z,565.00
2022-08-17T00:20:12.208Z,566.00
2022-08-17T00:20:42.258Z,567.00
2022-08-17T00:21:12.291Z,569.00
2022-08-17T00:22:32.857Z,569.00
2022-08-17T00:22:33.171Z,568.00
2022-08-17T00:22:42.416Z,566.00
2022-08-17T00:23:12.445Z,566.00
2022-08-17T00:23:44.372Z,566.00
2022-08-17T00:24:12.534Z,566.00
2022-08-17T00:24:42.563Z,566.00
2022-08-17T00:25:12.621Z,564.00
2022-08-17T00:25:42.651Z,566.00
2022-08-17T00:26:14.278Z,565.00
2022-08-17T00:26:45.182Z,565.00
2022-08-17T00:27:12.788Z,564.00
2022-08-17T00:27:42.819Z,563.00
2022-08-17T00:28:12.846Z,563.00
2022-08-17T00:28:42.895Z,561.00
2022-08-17T00:29:16.455Z,562.00
2022-08-17T00:29:42.966Z,562.00
2022-08-17T00:30:13.006Z,562.00
2022-08-17T00:30:50.784Z,561.00
2022-08-17T00:31:13.083Z,561.00
2022-08-17T00:31:43.121Z,561.00
2022-08-17T00:33:13.795Z,563.00
2022-08-17T00:33:15.525Z,560.00
2022-08-17T00:33:16.567Z,565.00
2022-08-17T00:33:43.290Z,566.00
2022-08-17T00:34:13.316Z,569.00
2022-08-17T00:34:43.345Z,568.00
2022-08-17T00:35:13.389Z,567.00
2022-08-17T00:35:43.406Z,565.00
2022-08-17T00:36:13.462Z,564.00
2022-08-17T00:36:43.501Z,565.00
2022-08-17T00:37:13.534Z,564.00
2022-08-17T00:37:43.564Z,565.00
2022-08-17T00:38:13.599Z,565.00
2022-08-17T00:38:43.632Z,566.00
2022-08-17T00:39:13.662Z,567.00
2022-08-17T00:39:43.749Z,567.00
2022-08-17T00:40:13.882Z,565.00
2022-08-17T00:40:44.900Z,566.00
2022-08-17T00:41:13.957Z,565.00
2022-08-17T00:41:43.906Z,564.00
2022-08-17T00:42:13.934Z,565.00
2022-08-17T00:42:43.960Z,564.00
2022-08-17T00:43:13.995Z,565.00
2022-08-17T00:43:44.029Z,564.00
2022-08-17T00:44:14.058Z,564.00
2022-08-17T00:44:44.087Z,564.00
2022-08-17T00:45:14.119Z,562.00
2022-08-17T00:45:44.145Z,562.00
2022-08-17T00:46:14.176Z,561.00
2022-08-17T00:46:44.210Z,560.00
2022-08-17T00:47:14.225Z,560.00
2022-08-17T00:47:44.338Z,559.00
2022-08-17T00:48:29.394Z,560.00
2022-08-17T00:48:44.474Z,562.00
2022-08-17T00:49:14.606Z,561.00
2022-08-17T00:49:44.614Z,562.00
2022-08-17T00:50:14.732Z,562.00
2022-08-17T00:50:44.720Z,562.00
2022-08-17T00:51:14.845Z,561.00
2022-08-17T00:51:44.846Z,562.00
2022-08-17T00:52:14.842Z,561.00
2022-08-17T00:52:44.962Z,558.00
2022-08-17T00:53:14.952Z,558.00
2022-08-17T00:53:44.977Z,557.00
2022-08-17T00:54:14.994Z,554.00
2022-08-17T00:54:45.126Z,556.00
2022-08-17T00:55:15.175Z,554.00
2022-08-17T00:55:45.175Z,552.00
2022-08-17T00:56:15.258Z,553.00
2022-08-17T00:56:45.217Z,553.00
2022-08-17T00:57:15.230Z,553.00
2022-08-17T00:57:45.272Z,552.00
2022-08-17T00:58:15.339Z,552.00
2022-08-17T00:58:45.424Z,552.00
2022-08-17T00:59:15.475Z,553.00
2022-08-17T00:59:45.512Z,552.00
2022-08-17T01:00:15.554Z,552.00
2022-08-17T01:00:45.759Z,552.00
2022-08-17T01:01:21.786Z,552.00
2022-08-17T01:01:45.705Z,553.00
2022-08-17T01:02:15.736Z,551.00
2022-08-17T01:02:45.772Z,552.00
2022-08-17T01:03:15.807Z,552.00
2022-08-17T01:03:45.865Z,554.00
2022-08-17T01:04:15.939Z,552.00
2022-08-17T01:04:45.974Z,551.00
2022-08-17T01:05:16.011Z,551.00
2022-08-17T01:05:46.040Z,551.00
2022-08-17T01:06:16.082Z,552.00
2022-08-17T01:06:46.137Z,554.00
2022-08-17T01:07:16.160Z,554.00
2022-08-17T01:07:46.188Z,555.00
2022-08-17T01:08:16.217Z,554.00
2022-08-17T01:08:46.250Z,555.00
2022-08-17T01:09:16.288Z,555.00
2022-08-17T01:09:46.316Z,555.00
2022-08-17T01:10:59.360Z,556.00
2022-08-17T01:10:59.917Z,555.00
2022-08-17T01:11:16.466Z,554.00
2022-08-17T01:11:46.503Z,554.00
2022-08-17T01:12:16.553Z,554.00
2022-08-17T01:12:46.600Z,554.00
2022-08-17T01:13:16.622Z,553.00
2022-08-17T01:13:46.670Z,552.00
2022-08-17T01:14:16.748Z,553.00
2022-08-17T01:14:46.801Z,554.00
2022-08-17T01:15:16.829Z,554.00
2022-08-17T01:15:46.874Z,555.00
2022-08-17T01:16:17.005Z,556.00
2022-08-17T01:16:47.123Z,556.00
2022-08-17T01:17:17.034Z,557.00
2022-08-17T01:17:47.087Z,557.00
2022-08-17T01:18:17.156Z,556.00
2022-08-17T01:18:47.242Z,556.00
2022-08-17T01:19:17.324Z,555.00
2022-08-17T01:19:47.405Z,556.00
2022-08-17T01:20:17.437Z,558.00
2022-08-17T01:20:48.240Z,557.00
2022-08-17T01:21:17.570Z,558.00
2022-08-17T01:21:47.605Z,557.00
2022-08-17T01:22:17.628Z,555.00
2022-08-17T01:22:47.661Z,557.00
2022-08-17T01:23:20.830Z,555.00
2022-08-17T01:23:47.752Z,556.00
2022-08-17T01:24:17.784Z,556.00
2022-08-17T01:24:47.818Z,556.00
2022-08-17T01:25:17.848Z,556.00
2022-08-17T01:25:48.814Z,556.00
2022-08-17T01:26:17.951Z,556.00
2022-08-17T01:26:48.007Z,555.00
2022-08-17T01:27:18.506Z,558.00
2022-08-17T01:27:48.092Z,559.00
2022-08-17T01:28:40.722Z,559.00
2022-08-17T01:28:54.829Z,558.00
2022-08-17T01:29:18.257Z,555.00
2022-08-17T01:29:48.341Z,553.00
2022-08-17T01:30:57.948Z,551.00
2022-08-17T01:30:57.999Z,553.00
2022-08-17T01:31:18.501Z,549.00
2022-08-17T01:31:48.554Z,549.00
2022-08-17T01:32:18.623Z,549.00
2022-08-17T01:32:48.935Z,547.00
2022-08-17T01:33:18.745Z,547.00
2022-08-17T01:33:48.774Z,547.00
2022-08-17T01:34:18.842Z,546.00
2022-08-17T01:34:50.591Z,545.00
2022-08-17T01:35:18.989Z,546.00
2022-08-17T01:35:49.018Z,547.00
2022-08-17T01:36:19.060Z,549.00
2022-08-17T01:36:49.090Z,549.00
2022-08-17T01:37:19.121Z,550.00
2022-08-17T01:37:49.151Z,551.00
2022-08-17T01:38:19.182Z,553.00
2022-08-17T01:38:49.230Z,552.00
2022-08-17T01:39:19.278Z,552.00
2022-08-17T01:39:49.386Z,553.00
2022-08-17T01:40:19.392Z,552.00
2022-08-17T01:40:49.418Z,551.00
2022-08-17T01:41:19.470Z,552.00
2022-08-17T01:41:49.498Z,553.00
2022-08-17T01:42:19.527Z,554.00
2022-08-17T01:42:49.822Z,553.00
2022-08-17T01:43:19.665Z,552.00
2022-08-17T01:43:49.689Z,553.00
2022-08-17T01:44:19.719Z,553.00
2022-08-17T01:44:49.748Z,554.00
2022-08-17T01:45:19.782Z,555.00
2022-08-17T01:45:49.815Z,553.00
2022-08-17T01:46:19.868Z,553.00
2022-08-17T01:46:49.900Z,553.00
2022-08-17T01:47:19.913Z,555.00
2022-08-17T01:47:49.911Z,558.00
2022-08-17T01:48:19.990Z,558.00
2022-08-17T01:48:50.102Z,556.00
2022-08-17T01:49:20.105Z,555.00
2022-08-17T01:49:50.223Z,556.00
2022-08-17T01:50:20.340Z,556.00
2022-08-17T01:50:50.333Z,556.00
2022-08-17T01:51:20.330Z,557.00
2022-08-17T01:51:50.318Z,556.00
2022-08-17T01:52:20.441Z,555.00
2022-08-17T01:52:50.750Z,553.00
2022-08-17T01:53:20.591Z,550.00
2022-08-17T01:53:50.738Z,549.00
2022-08-17T01:54:20.731Z,549.00
2022-08-17T01:54:50.803Z,548.00
2022-08-17T01:55:24.577Z,547.00
2022-08-17T01:55:50.821Z,548.00
2022-08-17T01:56:20.938Z,548.00
2022-08-17T01:56:50.932Z,551.00
2022-08-17T01:57:20.951Z,551.00
2022-08-17T01:57:50.979Z,550.00
2022-08-17T01:58:21.009Z,551.00
2022-08-17T01:58:51.049Z,548.00
2022-08-17T01:59:21.075Z,548.00
2022-08-17T01:59:51.106Z,548.00
2022-08-17T02:00:21.143Z,547.00
2022-08-17T02:00:59.641Z,546.00
2022-08-17T02:01:21.487Z,546.00
2022-08-17T02:01:51.315Z,546.00
2022-08-17T02:02:30.681Z,548.00
2022-08-17T02:02:51.535Z,549.00
2022-08-17T02:03:21.497Z,550.00
2022-08-17T02:03:56.224Z,551.00
2022-08-17T02:04:21.586Z,551.00
2022-08-17T02:04:51.612Z,550.00
2022-08-17T02:05:21.645Z,548.00
2022-08-17T02:05:51.675Z,549.00
2022-08-17T02:06:27.621Z,546.00
2022-08-17T02:06:54.411Z,547.00
2022-08-17T02:07:21.792Z,549.00
2022-08-17T02:08:00.219Z,548.00
2022-08-17T02:08:38.824Z,549.00
2022-08-17T02:09:01.696Z,549.00
2022-08-17T02:09:23.300Z,550.00
2022-08-17T02:09:52.758Z,550.00
2022-08-17T02:10:22.137Z,550.00
2022-08-17T02:10:52.162Z,549.00
2022-08-17T02:11:22.219Z,549.00
2022-08-17T02:11:52.325Z,549.00
2022-08-17T02:12:37.596Z,549.00
2022-08-17T02:12:52.684Z,547.00
2022-08-17T02:13:22.502Z,546.00
2022-08-17T02:14:02.840Z,547.00
2022-08-17T02:14:22.573Z,548.00
2022-08-17T02:14:52.611Z,551.00
2022-08-17T02:15:22.642Z,550.00
2022-08-17T02:15:52.673Z,550.00
2022-08-17T02:16:22.706Z,550.00
2022-08-17T02:16:52.735Z,550.00
2022-08-17T02:17:22.777Z,551.00
2022-08-17T02:17:54.786Z,551.00
2022-08-17T02:18:22.846Z,550.00
2022-08-17T02:18:52.883Z,548.00
2022-08-17T02:19:22.911Z,548.00
2022-08-17T02:19:52.941Z,548.00
2022-08-17T02:20:41.740Z,548.00
2022-08-17T02:20:53.031Z,548.00
2022-08-17T02:21:23.069Z,548.00
2022-08-17T02:21:53.099Z,548.00
2022-08-17T02:22:23.130Z,549.00
2022-08-17T02:22:53.163Z,547.00
2022-08-17T02:23:23.195Z,548.00
2022-08-17T02:23:53.231Z,549.00
2022-08-17T02:24:59.901Z,546.00
2022-08-17T02:25:01.218Z,549.00
2022-08-17T02:25:23.361Z,546.00
2022-08-17T02:25:53.390Z,545.00
2022-08-17T02:26:25.716Z,545.00
2022-08-17T02:26:53.425Z,546.00
2022-08-17T02:27:23.464Z,546.00
2022-08-17T02:27:53.494Z,547.00
2022-08-17T02:28:23.527Z,547.00
2022-08-17T02:28:53.559Z,547.00
2022-08-17T02:29:23.596Z,547.00
2022-08-17T02:29:53.623Z,545.00
2022-08-17T02:31:00.628Z,546.00
2022-08-17T02:31:02.028Z,547.00
2022-08-17T02:31:23.788Z,547.00
2022-08-17T02:31:53.798Z,546.00
2022-08-17T02:32:28.203Z,546.00
2022-08-17T02:32:53.896Z,544.00
2022-08-17T02:33:23.929Z,545.00
2022-08-17T02:34:00.542Z,543.00
2022-08-17T02:34:24.033Z,543.00
2022-08-17T02:34:54.070Z,544.00
2022-08-17T02:35:24.101Z,545.00
2022-08-17T02:35:54.254Z,544.00
2022-08-17T02:36:27.331Z,545.00
2022-08-17T02:36:54.264Z,546.00
2022-08-17T02:37:24.296Z,545.00
2022-08-17T02:37:55.439Z,543.00
2022-08-17T02:38:24.391Z,543.00
2022-08-17T02:38:54.425Z,544.00
2022-08-17T02:39:24.504Z,543.00
2022-08-17T02:39:54.626Z,543.00
2022-08-17T02:40:36.041Z,543.00
2022-08-17T02:40:54.699Z,544.00
2022-08-17T02:41:24.728Z,544.00
2022-08-17T02:41:54.763Z,543.00
2022-08-17T02:42:24.793Z,544.00
2022-08-17T02:42:54.827Z,543.00
2022-08-17T02:43:24.857Z,542.00
2022-08-17T02:43:54.886Z,542.00
2022-08-17T02:44:39.391Z,544.00
2022-08-17T02:44:54.965Z,544.00
2022-08-17T02:45:24.996Z,543.00
2022-08-17T02:45:55.041Z,542.00
2022-08-17T02:46:25.075Z,542.00
2022-08-17T02:46:55.111Z,543.00
2022-08-17T02:47:25.113Z,544.00
2022-08-17T02:47:55.227Z,543.00
2022-08-17T02:48:30.409Z,546.00
2022-08-17T02:48:55.254Z,545.00
2022-08-17T02:49:25.363Z,544.00
2022-08-17T02:49:55.821Z,545.00
2022-08-17T02:50:25.471Z,543.00
2022-08-17T02:50:55.599Z,543.00
2022-08-17T02:51:25.591Z,544.00
2022-08-17T02:51:55.588Z,546.00
2022-08-17T02:52:43.217Z,546.00
2022-08-17T02:53:02.320Z,546.00
2022-08-17T02:53:25.921Z,546.00
2022-08-17T02:54:35.844Z,545.00
2022-08-17T02:54:39.963Z,546.00
2022-08-17T02:54:55.818Z,545.00
2022-08-17T02:55:25.809Z,546.00
2022-08-17T02:55:55.925Z,547.00
2022-08-17T02:56:25.922Z,547.00
2022-08-17T02:56:55.924Z,547.00
2022-08-17T02:57:25.939Z,547.00
2022-08-17T02:57:55.969Z,547.00
2022-08-17T02:58:34.567Z,548.00
2022-08-17T02:58:56.051Z,545.00
2022-08-17T02:59:26.087Z,545.00
2022-08-17T02:59:56.118Z,545.00
2022-08-17T03:00:26.151Z,546.00
2022-08-17T03:00:56.184Z,545.00
2022-08-17T03:01:26.288Z,546.00
2022-08-17T03:01:56.415Z,545.00
2022-08-17T03:02:26.430Z,546.00
2022-08-17T03:02:56.458Z,545.00
2022-08-17T03:03:26.488Z,545.00
2022-08-17T03:03:56.517Z,545.00
2022-08-17T03:04:26.554Z,545.00
2022-08-17T03:04:56.591Z,544.00
2022-08-17T03:05:26.617Z,545.00
2022-08-17T03:05:56.644Z,544.00
2022-08-17T03:06:26.692Z,544.00
2022-08-17T03:06:56.719Z,544.00
2022-08-17T03:07:26.736Z,544.00
2022-08-17T03:07:56.771Z,543.00
2022-08-17T03:08:26.802Z,543.00
2022-08-17T03:08:56.832Z,542.00
2022-08-17T03:09:26.867Z,542.00
2022-08-17T03:09:56.907Z,541.00
2022-08-17T03:10:26.939Z,542.00
2022-08-17T03:10:56.972Z,542.00
2022-08-17T03:11:27.020Z,541.00
2022-08-17T03:11:57.056Z,540.00
2022-08-17T03:12:27.081Z,538.00
2022-08-17T03:12:57.117Z,538.00
2022-08-17T03:13:27.149Z,538.00
2022-08-17T03:13:57.183Z,538.00
2022-08-17T03:14:27.213Z,539.00
2022-08-17T03:14:57.248Z,540.00
2022-08-17T03:15:27.282Z,538.00
2022-08-17T03:15:57.309Z,538.00
2022-08-17T03:16:27.348Z,539.00
2022-08-17T03:16:57.377Z,541.00
2022-08-17T03:17:27.405Z,541.00
2022-08-17T03:17:57.436Z,543.00
2022-08-17T03:18:27.491Z,543.00
2022-08-17T03:18:57.525Z,546.00
2022-08-17T03:19:27.553Z,545.00
2022-08-17T03:19:57.583Z,544.00
2022-08-17T03:20:27.626Z,544.00
2022-08-17T03:20:57.653Z,543.00
2022-08-17T03:21:27.682Z,544.00
2022-08-17T03:21:57.720Z,544.00
2022-08-17T03:22:36.818Z,543.00
2022-08-17T03:23:01.982Z,542.00
2022-08-17T03:23:27.943Z,542.00
2022-08-17T03:23:57.988Z,543.00
2022-08-17T03:24:28.857Z,541.00
2022-08-17T03:24:58.019Z,542.00
2022-08-17T03:25:28.053Z,542.00
2022-08-17T03:25:58.132Z,543.00
2022-08-17T03:26:29.721Z,543.00
2022-08-17T03:26:58.215Z,543.00
2022-08-17T03:27:28.252Z,542.00
2022-08-17T03:27:58.282Z,540.00
2022-08-17T03:28:28.338Z,539.00
2022-08-17T03:28:58.369Z,540.00
2022-08-17T03:29:28.406Z,542.00
2022-08-17T03:29:58.441Z,540.00
2022-08-17T03:30:28.473Z,539.00
2022-08-17T03:30:58.503Z,538.00
2022-08-17T03:31:28.559Z,537.00
2022-08-17T03:31:58.580Z,537.00
2022-08-17T03:32:28.619Z,537.00
2022-08-17T03:32:58.653Z,534.00
2022-08-17T03:33:28.703Z,535.00
2022-08-17T03:33:58.740Z,535.00
2022-08-17T03:34:28.758Z,533.00
2022-08-17T03:34:58.789Z,532.00
2022-08-17T03:35:28.824Z,533.00
2022-08-17T03:35:58.854Z,533.00
2022-08-17T03:36:28.900Z,534.00
2022-08-17T03:36:58.935Z,536.00
2022-08-17T03:37:28.973Z,536.00
2022-08-17T03:38:00.675Z,535.00
2022-08-17T03:38:29.013Z,536.00
2022-08-17T03:38:59.068Z,535.00
2022-08-17T03:39:29.136Z,533.00
2022-08-17T03:39:59.203Z,531.00
2022-08-17T03:40:34.478Z,531.00
2022-08-17T03:40:59.989Z,533.00
2022-08-17T03:41:29.297Z,534.00
2022-08-17T03:41:59.333Z,533.00
2022-08-17T03:42:31.432Z,533.00
2022-08-17T03:42:59.458Z,533.00
2022-08-17T03:43:29.492Z,535.00
2022-08-17T03:43:59.530Z,535.00
2022-08-17T03:44:29.550Z,536.00
2022-08-17T03:44:59.588Z,536.00
2022-08-17T03:45:29.618Z,536.00
2022-08-17T03:45:59.677Z,539.00
2022-08-17T03:46:35.120Z,539.00
2022-08-17T03:46:59.783Z,537.00
2022-08-17T03:47:29.905Z,537.00
2022-08-17T03:47:59.901Z,536.00
2022-08-17T03:48:29.948Z,537.00
2022-08-17T03:48:59.944Z,538.00
2022-08-17T03:49:29.964Z,540.00
2022-08-17T03:49:59.987Z,539.00
2022-08-17T03:50:30.009Z,540.00
2022-08-17T03:51:00.048Z,542.00
2022-08-17T03:51:30.052Z,541.00
2022-08-17T03:52:00.233Z,543.00
2022-08-17T03:52:30.229Z,544.00
2022-08-17T03:53:00.365Z,544.00
2022-08-17T03:53:30.393Z,543.00
2022-08-17T03:54:00.405Z,543.00
2022-08-17T03:54:30.527Z,541.00
2022-08-17T03:55:00.537Z,540.00
2022-08-17T03:55:36.119Z,537.00
2022-08-17T03:56:00.669Z,538.00
2022-08-17T03:56:30.683Z,538.00
2022-08-17T03:57:00.816Z,536.00
2022-08-17T03:57:30.767Z,537.00
2022-08-17T03:58:00.817Z,536.00
2022-08-17T03:58:30.885Z,536.00
2022-08-17T03:59:00.933Z,537.00
2022-08-17T03:59:31.029Z,537.00
2022-08-17T04:00:01.038Z,537.00
2022-08-17T04:00:31.077Z,538.00
2022-08-17T04:01:01.141Z,538.00
2022-08-17T04:01:31.271Z,537.00
2022-08-17T04:02:01.163Z,538.00
2022-08-17T04:02:31.199Z,537.00
2022-08-17T04:03:01.233Z,537.00
2022-08-17T04:03:31.250Z,537.00
2022-08-17T04:04:01.298Z,538.00
2022-08-17T04:04:31.340Z,538.00
2022-08-17T04:05:01.372Z,539.00
2022-08-17T04:05:31.440Z,539.00
2022-08-17T04:06:01.512Z,537.00
2022-08-17T04:06:31.588Z,537.00
2022-08-17T04:07:01.669Z,537.00
2022-08-17T04:07:31.712Z,540.00
2022-08-17T04:08:01.747Z,542.00
2022-08-17T04:08:31.750Z,541.00
2022-08-17T04:09:01.804Z,541.00
2022-08-17T04:09:31.862Z,542.00
2022-08-17T04:10:01.913Z,542.00
2022-08-17T04:10:33.917Z,543.00
2022-08-17T04:11:02.033Z,543.00
2022-08-17T04:11:32.087Z,544.00
2022-08-17T04:12:04.988Z,544.00
2022-08-17T04:12:32.197Z,545.00
2022-08-17T04:13:02.279Z,545.00
2022-08-17T04:13:32.322Z,542.00
2022-08-17T04:14:02.411Z,543.00
2022-08-17T04:14:32.457Z,543.00
2022-08-17T04:15:02.492Z,541.00
2022-08-17T04:15:32.527Z,542.00
2022-08-17T04:16:02.578Z,542.00
2022-08-17T04:16:32.611Z,544.00
2022-08-17T04:17:02.646Z,544.00
2022-08-17T04:17:32.675Z,543.00
2022-08-17T04:18:02.719Z,544.00
2022-08-17T04:18:32.755Z,543.00
2022-08-17T04:19:02.787Z,544.00
2022-08-17T04:19:32.828Z,543.00
2022-08-17T04:20:02.861Z,544.00
2022-08-17T04:20:32.889Z,544.00
2022-08-17T04:21:02.966Z,556.00
2022-08-17T04:21:32.999Z,563.00
2022-08-17T04:22:03.048Z,549.00
2022-08-17T04:22:34.348Z,540.00
2022-08-17T04:23:03.116Z,504.00
2022-08-17T04:23:33.232Z,470.00
2022-08-17T04:24:03.296Z,483.00
2022-08-17T04:24:33.321Z,492.00
2022-08-17T04:25:03.374Z,495.00
2022-08-17T04:25:33.457Z,499.00
2022-08-17T04:26:03.429Z,501.00
2022-08-17T04:26:52.905Z,515.00
2022-08-17T04:27:03.540Z,512.00
2022-08-17T04:27:33.664Z,505.00
2022-08-17T04:28:03.669Z,511.00
2022-08-17T04:28:33.619Z,508.00
2022-08-17T04:29:03.700Z,507.00
2022-08-17T04:29:50.048Z,507.00
2022-08-17T04:30:03.787Z,513.00
2022-08-17T04:30:33.867Z,494.00
2022-08-17T04:31:03.921Z,507.00
2022-08-17T04:31:33.992Z,503.00
2022-08-17T04:32:04.020Z,506.00
2022-08-17T04:32:59.307Z,484.00
2022-08-17T04:33:07.081Z,482.00
2022-08-17T04:33:34.161Z,480.00
2022-08-17T04:34:04.192Z,482.00
2022-08-17T04:34:34.227Z,484.00
2022-08-17T04:35:04.259Z,488.00
2022-08-17T04:35:34.289Z,490.00
2022-08-17T04:36:04.330Z,494.00
2022-08-17T04:36:34.376Z,497.00
2022-08-17T04:37:04.414Z,499.00
2022-08-17T04:37:34.482Z,500.00
2022-08-17T04:38:04.497Z,503.00
2022-08-17T04:38:34.533Z,506.00
2022-08-17T04:39:04.570Z,509.00
2022-08-17T04:39:34.629Z,508.00
2022-08-17T04:40:04.675Z,514.00
2022-08-17T04:40:34.725Z,509.00
2022-08-17T04:41:04.754Z,507.00
2022-08-17T04:41:34.805Z,506.00
2022-08-17T04:42:04.835Z,493.00
2022-08-17T04:42:34.872Z,496.00
2022-08-17T04:43:04.923Z,500.00
2022-08-17T04:43:34.955Z,476.00
2022-08-17T04:44:05.002Z,468.00
2022-08-17T04:44:37.835Z,477.00
2022-08-17T04:45:05.049Z,488.00
2022-08-17T04:45:35.080Z,495.00
2022-08-17T04:46:05.116Z,482.00
2022-08-17T04:46:35.166Z,501.00
2022-08-17T04:47:05.203Z,471.00
2022-08-17T04:47:35.189Z,475.00
2022-08-17T04:48:05.321Z,502.00
2022-08-17T04:48:37.236Z,487.00
2022-08-17T04:49:05.424Z,486.00
2022-08-17T04:49:35.422Z,489.00
2022-08-17T04:50:05.423Z,485.00
2022-08-17T04:50:35.424Z,484.00
2022-08-17T04:51:05.423Z,486.00
2022-08-17T04:51:35.546Z,485.00
2022-08-17T04:52:05.695Z,488.00
2022-08-17T04:52:43.261Z,484.00
2022-08-17T04:53:05.712Z,485.00
2022-08-17T04:53:35.833Z,486.00
2022-08-17T04:54:05.833Z,484.00
2022-08-17T04:54:35.830Z,485.00
2022-08-17T04:55:05.948Z,485.00
2022-08-17T04:55:36.064Z,485.00
2022-08-17T04:56:06.069Z,483.00
2022-08-17T04:56:36.184Z,486.00
2022-08-17T04:57:06.197Z,472.00
2022-08-17T04:57:39.350Z,468.00
2022-08-17T04:58:06.313Z,483.00
2022-08-17T04:58:36.320Z,481.00
2022-08-17T04:59:06.355Z,481.00
2022-08-17T04:59:36.380Z,486.00
2022-08-17T05:00:06.415Z,477.00
2022-08-17T05:00:36.448Z,480.00
2022-08-17T05:01:06.572Z,481.00
2022-08-17T05:01:36.646Z,481.00
2022-08-17T05:02:06.680Z,488.00
2022-08-17T05:02:36.708Z,482.00
2022-08-17T05:03:06.774Z,463.00
2022-08-17T05:03:36.807Z,469.00
2022-08-17T05:04:20.853Z,480.00
2022-08-17T05:04:36.887Z,479.00
2022-08-17T05:05:06.925Z,455.00
2022-08-17T05:05:36.959Z,466.00
2022-08-17T05:06:06.990Z,462.00
2022-08-17T05:06:37.020Z,465.00
2022-08-17T05:07:07.069Z,467.00
2022-08-17T05:07:37.115Z,471.00
2022-08-17T05:08:07.165Z,478.00
2022-08-17T05:08:37.200Z,476.00
2022-08-17T05:09:07.238Z,472.00
2022-08-17T05:09:37.278Z,475.00
2022-08-17T05:10:07.337Z,470.00
2022-08-17T05:10:37.375Z,476.00
2022-08-17T05:11:07.425Z,476.00
2022-08-17T05:11:37.468Z,473.00
2022-08-17T05:12:07.515Z,476.00
2022-08-17T05:12:37.562Z,480.00
2022-08-17T05:13:07.610Z,482.00
2022-08-17T05:13:37.626Z,544.00
2022-08-17T05:14:07.650Z,427.00
2022-08-17T05:14:37.683Z,470.00
2022-08-17T05:15:07.718Z,481.00
2022-08-17T05:15:37.772Z,480.00
2022-08-17T05:16:07.824Z,484.00
2022-08-17T05:16:37.865Z,483.00
2022-08-17T05:17:11.055Z,486.00
2022-08-17T05:17:37.970Z,482.00
2022-08-17T05:18:08.042Z,484.00
2022-08-17T05:18:38.072Z,482.00
2022-08-17T05:19:08.115Z,475.00
2022-08-17T05:19:38.150Z,480.00
2022-08-17T05:20:08.181Z,481.00
2022-08-17T05:20:38.222Z,476.00
2022-08-17T05:21:08.254Z,470.00
2022-08-17T05:21:38.289Z,473.00
2022-08-17T05:22:08.323Z,474.00
2022-08-17T05:22:38.360Z,477.00
2022-08-17T05:23:08.401Z,505.00
2022-08-17T05:23:43.124Z,489.00
2022-08-17T05:24:15.571Z,485.00
2022-08-17T05:24:43.773Z,494.00
2022-08-17T05:25:08.607Z,398.00
2022-08-17T05:25:38.664Z,506.00
2022-08-17T05:26:08.698Z,416.00
2022-08-17T05:26:38.766Z,472.00
2022-08-17T05:27:08.797Z,479.00
2022-08-17T05:27:38.844Z,484.00
2022-08-17T05:28:08.934Z,489.00
2022-08-17T05:28:38.947Z,486.00
2022-08-17T05:29:09.059Z,483.00
2022-08-17T05:29:39.100Z,484.00
2022-08-17T05:30:09.137Z,489.00
2022-08-17T05:30:39.884Z,480.00
2022-08-17T05:31:09.279Z,482.00
2022-08-17T05:31:39.362Z,485.00
2022-08-17T05:32:39.535Z,485.00
2022-08-17T05:32:40.492Z,487.00
2022-08-17T05:33:09.573Z,491.00
2022-08-17T05:33:43.988Z,490.00
2022-08-17T05:34:09.633Z,466.00
2022-08-17T05:34:39.666Z,478.00
2022-08-17T05:35:09.706Z,477.00
2022-08-17T05:35:39.747Z,481.00
2022-08-17T05:36:09.775Z,487.00
2022-08-17T05:36:44.021Z,484.00
2022-08-17T05:37:09.864Z,484.00
2022-08-17T05:37:39.886Z,484.00
2022-08-17T05:38:09.931Z,485.00
2022-08-17T05:38:39.967Z,487.00
2022-08-17T05:39:15.817Z,487.00
2022-08-17T05:39:40.110Z,438.00
2022-08-17T05:40:10.178Z,466.00
2022-08-17T05:40:40.221Z,488.00
2022-08-17T05:41:10.252Z,480.00
2022-08-17T05:41:40.290Z,486.00
2022-08-17T05:42:10.327Z,421.00
2022-08-17T05:42:40.361Z,446.00
2022-08-17T05:43:10.396Z,462.00
2022-08-17T05:43:40.430Z,478.00
2022-08-17T05:44:10.461Z,489.00
2022-08-17T05:44:40.490Z,449.00
2022-08-17T05:45:10.524Z,464.00
2022-08-17T05:45:55.139Z,472.00
2022-08-17T05:46:10.602Z,473.00
2022-08-17T05:46:40.642Z,477.00
2022-08-17T05:47:10.657Z,477.00
2022-08-17T05:47:40.694Z,477.00
2022-08-17T05:48:10.694Z,480.00
2022-08-17T05:48:40.693Z,481.00
2022-08-17T05:49:10.807Z,483.00
2022-08-17T05:49:40.928Z,485.00
2022-08-17T05:50:10.926Z,486.00
2022-08-17T05:50:40.945Z,483.00
2022-08-17T05:51:11.047Z,482.00
2022-08-17T05:51:41.047Z,485.00
2022-08-17T05:52:11.049Z,476.00
2022-08-17T05:52:41.167Z,476.00
2022-08-17T05:53:11.168Z,479.00
2022-08-17T05:53:41.165Z,465.00
2022-08-17T05:54:11.190Z,472.00
2022-08-17T05:54:41.301Z,476.00
2022-08-17T05:55:11.308Z,474.00
2022-08-17T05:55:41.421Z,476.00
2022-08-17T05:56:11.630Z,476.00
2022-08-17T05:56:41.562Z,477.00
2022-08-17T05:57:11.568Z,479.00
2022-08-17T05:57:47.481Z,481.00
2022-08-17T05:58:11.672Z,481.00
2022-08-17T05:58:41.709Z,481.00
2022-08-17T05:59:11.742Z,483.00
2022-08-17T05:59:41.773Z,482.00
2022-08-17T06:00:11.808Z,478.00
2022-08-17T06:00:42.406Z,477.00
2022-08-17T06:01:12.068Z,484.00
2022-08-17T06:01:42.086Z,480.00
2022-08-17T06:02:12.162Z,482.00
2022-08-17T06:02:47.521Z,481.00
2022-08-17T06:03:12.238Z,483.00
2022-08-17T06:03:42.266Z,481.00
2022-08-17T06:04:12.304Z,479.00
2022-08-17T06:04:42.335Z,472.00
2022-08-17T06:05:12.377Z,483.00
2022-08-17T06:05:42.406Z,487.00
2022-08-17T06:06:12.441Z,489.00
2022-08-17T06:06:42.478Z,481.00
2022-08-17T06:07:12.514Z,451.00
2022-08-17T06:07:42.571Z,463.00
2022-08-17T06:08:12.563Z,475.00
2022-08-17T06:08:42.592Z,487.00
2022-08-17T06:09:12.620Z,467.00
2022-08-17T06:09:42.654Z,471.00
2022-08-17T06:10:12.690Z,474.00
2022-08-17T06:10:42.749Z,484.00
2022-08-17T06:11:12.750Z,481.00
2022-08-17T06:11:42.784Z,478.00
2022-08-17T06:12:14.333Z,480.00
2022-08-17T06:12:42.978Z,485.00
2022-08-17T06:13:12.909Z,484.00
2022-08-17T06:13:42.943Z,483.00
2022-08-17T06:14:12.974Z,486.00
2022-08-17T06:14:43.012Z,486.00